Time;durP1;ratioP1;P1;durP2;ratioP2;P2;SDS_P1;SDS_P2;PMS_P1;PMS_P2;Temp;Humidity;BMP_temperature;BMP_pressure;BME280_temperature;BME280_humidity;BME280_pressure;Samples;Min_cycle;Max_cycle;Signal;HPM_P1;HPM_P2
2024/01/26 00:01:31;;;;;;;67.93;33.55;;;11.90;99.90;;;;;;5025673;28;20073;-76
2024/01/26 00:04:00;;;;;;;65.63;32.72;;;11.90;99.90;;;;;;5027710;28;20501;-76
2024/01/26 00:06:26;;;;;;;61.85;30.90;;;11.90;99.90;;;;;;5027597;28;20072;-75
2024/01/26 00:08:51;;;;;;;64.63;31.58;;;11.90;99.90;;;;;;5028907;28;20493;-76
2024/01/26 00:11:19;;;;;;;67.75;31.75;;;11.90;99.90;;;;;;5027353;28;20025;-76
2024/01/26 00:13:44;;;;;;;54.78;28.52;;;11.90;99.90;;;;;;5025035;28;20049;-76
2024/01/26 00:16:10;;;;;;;48.75;26.20;;;11.90;99.90;;;;;;5025475;28;20072;-76
2024/01/26 00:18:36;;;;;;;55.33;27.08;;;12.00;99.90;;;;;;5020822;28;20476;-74
2024/01/26 00:21:03;;;;;;;53.22;28.85;;;12.00;99.90;;;;;;5025036;28;20049;-75
2024/01/26 00:23:30;;;;;;;51.17;25.83;;;12.00;99.90;;;;;;5025285;28;20029;-75
2024/01/26 00:25:57;;;;;;;50.45;26.20;;;12.00;99.90;;;;;;5025967;28;20096;-76
2024/01/26 00:28:22;;;;;;;56.10;28.48;;;12.00;99.90;;;;;;5027270;28;20026;-76
2024/01/26 00:30:48;;;;;;;45.75;24.45;;;12.00;99.90;;;;;;5024725;28;20068;-75
2024/01/26 00:33:14;;;;;;;47.10;26.08;;;11.90;99.90;;;;;;5019782;28;20025;-75
2024/01/26 00:35:39;;;;;;;48.58;23.02;;;11.90;99.90;;;;;;5022590;28;20029;-76
2024/01/26 00:38:06;;;;;;;44.35;24.38;;;12.00;99.90;;;;;;5025622;28;20457;-76
2024/01/26 00:40:32;;;;;;;36.85;20.85;;;12.00;99.90;;;;;;5027935;28;20029;-76
2024/01/26 00:42:57;;;;;;;35.72;21.35;;;12.00;99.90;;;;;;5024490;28;20052;-76
2024/01/26 00:45:23;;;;;;;39.35;22.50;;;12.00;99.90;;;;;;5025251;28;20017;-76
2024/01/26 00:47:49;;;;;;;38.67;21.33;;;12.00;99.90;;;;;;5024446;28;20032;-75
2024/01/26 00:50:14;;;;;;;37.08;20.42;;;12.00;99.90;;;;;;5027105;28;20051;-75
2024/01/26 00:52:40;;;;;;;44.08;21.88;;;12.00;99.90;;;;;;5025041;28;20427;-75
2024/01/26 00:55:06;;;;;;;35.00;19.98;;;12.10;99.90;;;;;;5026949;28;20034;-75
2024/01/26 00:57:32;;;;;;;35.88;19.85;;;12.00;99.90;;;;;;5027075;28;20029;-75
2024/01/26 00:59:59;;;;;;;35.78;19.25;;;11.90;99.90;;;;;;5025321;28;20124;-76
2024/01/26 01:02:25;;;;;;;37.40;20.08;;;11.90;99.90;;;;;;5024556;28;20041;-76
2024/01/26 01:04:51;;;;;;;24.92;15.95;;;11.80;99.90;;;;;;5025813;28;20029;-76
2024/01/26 01:07:17;;;;;;;19.85;13.48;;;11.90;99.90;;;;;;5023569;28;20023;-75
2024/01/26 01:09:42;;;;;;;17.75;13.07;;;11.90;99.90;;;;;;5024330;28;20045;-75
2024/01/26 01:12:08;;;;;;;21.17;12.10;;;11.90;99.90;;;;;;5026056;28;20010;-76
2024/01/26 01:14:36;;;;;;;13.90;10.25;;;12.00;99.90;;;;;;5023428;28;20040;-75
2024/01/26 01:17:04;;;;;;;16.10;10.95;;;12.00;99.90;;;;;;5025788;28;20018;-75
2024/01/26 01:19:30;;;;;;;14.30;9.20;;;12.00;99.90;;;;;;5024055;28;20029;-75
2024/01/26 01:21:56;;;;;;;13.82;9.90;;;12.00;99.90;;;;;;5025192;28;20073;-75
2024/01/26 01:24:23;;;;;;;17.83;10.88;;;12.00;99.90;;;;;;5026069;28;20052;-76
2024/01/26 01:26:49;;;;;;;15.55;9.82;;;11.90;99.90;;;;;;5027485;28;20495;-76
2024/01/26 01:29:14;;;;;;;14.60;9.07;;;12.00;99.90;;;;;;5017690;28;20030;-75
2024/01/26 01:31:40;;;;;;;13.15;9.45;;;11.90;99.90;;;;;;5027408;28;20026;-76
2024/01/26 01:34:06;;;;;;;10.35;8.25;;;12.00;99.90;;;;;;5016443;28;20014;-76
2024/01/26 01:36:31;;;;;;;17.25;9.43;;;12.00;99.90;;;;;;5022234;28;20071;-76
2024/01/26 01:38:57;;;;;;;12.88;9.43;;;12.10;99.90;;;;;;5021292;28;20026;-76
2024/01/26 01:41:23;;;;;;;13.63;9.52;;;12.10;99.90;;;;;;5023695;28;20469;-75
2024/01/26 01:43:55;;;;;;;14.13;9.93;;;12.00;99.90;;;;;;5019761;28;20029;-76
2024/01/26 01:46:21;;;;;;;;;;;12.00;99.90;;;;;;5027057;28;20041;-76
2024/01/26 01:48:49;;;;;;;15.75;10.48;;;12.00;99.90;;;;;;5021116;28;19910;-75
2024/01/26 01:51:15;;;;;;;17.50;10.85;;;12.00;99.90;;;;;;5027522;28;20115;-75
2024/01/26 01:53:41;;;;;;;16.15;10.57;;;12.00;99.90;;;;;;5025315;28;20493;-76
2024/01/26 01:56:11;;;;;;;15.57;10.30;;;12.00;99.90;;;;;;5028025;28;20021;-76
2024/01/26 01:58:41;;;;;;;13.15;9.27;;;12.00;99.90;;;;;;5030421;28;20211;-76
2024/01/26 02:01:07;;;;;;;13.00;9.13;;;12.00;99.90;;;;;;5028140;28;20052;-76
2024/01/26 02:03:34;;;;;;;13.25;9.52;;;11.90;99.90;;;;;;5031684;28;20030;-75
2024/01/26 02:06:00;;;;;;;14.25;8.48;;;11.90;99.90;;;;;;5032579;28;20023;-75
2024/01/26 02:08:25;;;;;;;15.40;8.98;;;12.00;99.90;;;;;;5021454;28;20034;-76
2024/01/26 02:10:51;;;;;;;13.52;8.85;;;11.90;99.90;;;;;;5026195;28;20030;-75
2024/01/26 02:13:17;;;;;;;12.07;8.23;;;11.90;99.90;;;;;;5034098;28;20025;-75
2024/01/26 02:15:42;;;;;;;15.07;7.72;;;11.90;99.90;;;;;;5025539;28;20018;-76
2024/01/26 02:18:08;;;;;;;11.48;7.63;;;12.00;99.90;;;;;;5028761;28;20112;-75
2024/01/26 02:20:34;;;;;;;15.10;8.40;;;12.00;99.90;;;;;;5030297;28;20017;-75
2024/01/26 02:22:59;;;;;;;10.48;7.47;;;12.00;99.90;;;;;;5033835;28;20042;-75
2024/01/26 02:25:25;;;;;;;10.60;7.05;;;12.00;99.90;;;;;;5031015;28;20393;-75
2024/01/26 02:27:52;;;;;;;13.23;7.22;;;11.90;99.90;;;;;;5026446;28;20485;-75
2024/01/26 02:30:18;;;;;;;12.07;7.03;;;11.90;99.90;;;;;;5026999;28;20026;-75
2024/01/26 02:32:44;;;;;;;13.90;6.97;;;11.90;99.90;;;;;;5033081;28;20048;-75
2024/01/26 02:35:10;;;;;;;10.98;7.22;;;12.00;99.90;;;;;;5029987;28;20441;-75
2024/01/26 02:37:36;;;;;;;11.93;7.10;;;12.00;99.90;;;;;;5024824;28;20482;-75
2024/01/26 02:40:02;;;;;;;11.35;8.35;;;12.00;99.90;;;;;;5028436;28;20065;-75
2024/01/26 02:42:27;;;;;;;13.70;7.78;;;12.00;99.90;;;;;;5035994;28;20535;-75
2024/01/26 02:44:53;;;;;;;10.48;7.05;;;12.00;99.90;;;;;;5027188;28;20474;-75
2024/01/26 02:47:19;;;;;;;8.98;7.05;;;12.00;99.90;;;;;;5024114;28;20041;-75
2024/01/26 02:49:45;;;;;;;12.15;8.63;;;11.90;99.90;;;;;;5026984;28;20101;-75
2024/01/26 02:52:10;;;;;;;13.52;8.82;;;11.90;99.90;;;;;;5032160;28;20071;-75
2024/01/26 02:54:36;;;;;;;12.88;8.10;;;11.90;99.90;;;;;;5028861;28;20022;-76
2024/01/26 02:57:02;;;;;;;15.52;8.82;;;11.90;99.90;;;;;;5021679;28;20384;-75
2024/01/26 02:59:28;;;;;;;14.02;8.90;;;11.90;99.90;;;;;;5033928;28;20035;-75
2024/01/26 03:01:54;;;;;;;14.27;9.45;;;11.90;99.90;;;;;;5030349;28;20045;-76
2024/01/26 03:04:19;;;;;;;14.25;9.88;;;11.90;99.90;;;;;;5026284;28;20017;-75
2024/01/26 03:06:46;;;;;;;15.75;11.23;;;11.90;99.90;;;;;;5026174;28;20394;-75
2024/01/26 03:09:12;;;;;;;13.85;9.85;;;11.90;99.90;;;;;;5035769;28;20045;-75
2024/01/26 03:11:40;;;;;;;16.33;10.02;;;11.90;99.90;;;;;;5028979;28;20041;-75
2024/01/26 03:14:07;;;;;;;14.80;9.88;;;11.90;99.90;;;;;;5022583;28;20107;-75
2024/01/26 03:16:33;;;;;;;16.45;9.75;;;11.90;99.90;;;;;;5023257;28;20041;-75
2024/01/26 03:18:59;;;;;;;13.98;10.20;;;11.90;99.90;;;;;;5032369;28;20029;-75
2024/01/26 03:21:25;;;;;;;14.00;10.82;;;11.90;99.90;;;;;;5027210;28;20044;-75
2024/01/26 03:23:50;;;;;;;15.82;11.02;;;11.80;99.90;;;;;;5030059;28;20022;-75
2024/01/26 03:26:16;;;;;;;16.75;10.30;;;11.90;99.90;;;;;;5032016;28;20037;-75
2024/01/26 03:28:41;;;;;;;14.52;10.40;;;12.00;99.90;;;;;;5026662;28;20360;-76
2024/01/26 03:31:07;;;;;;;14.80;10.13;;;11.90;99.90;;;;;;5028871;28;20030;-76
2024/01/26 03:33:33;;;;;;;16.25;9.35;;;11.90;99.90;;;;;;5030609;28;20465;-76
2024/01/26 03:35:59;;;;;;;15.32;10.77;;;11.90;99.90;;;;;;5020057;28;20327;-75
2024/01/26 03:38:24;;;;;;;12.77;9.20;;;11.90;99.90;;;;;;5033584;28;20021;-75
2024/01/26 03:40:50;;;;;;;13.90;9.77;;;11.90;99.90;;;;;;5023654;28;20490;-75
2024/01/26 03:43:16;;;;;;;16.50;9.88;;;11.90;99.90;;;;;;5025359;28;20386;-75
2024/01/26 03:45:41;;;;;;;13.15;9.45;;;11.90;99.90;;;;;;5026129;28;20471;-76
2024/01/26 03:48:07;;;;;;;17.83;9.60;;;11.90;99.90;;;;;;5028214;28;20430;-75
2024/01/26 03:50:33;;;;;;;12.52;9.05;;;11.90;99.90;;;;;;5028231;28;20356;-76
2024/01/26 03:52:59;;;;;;;13.18;8.90;;;11.90;99.90;;;;;;5026625;28;20507;-75
2024/01/26 03:55:25;;;;;;;14.23;9.48;;;11.90;99.90;;;;;;5031254;28;20071;-75
2024/01/26 03:57:50;;;;;;;12.55;8.85;;;11.90;99.90;;;;;;5026646;28;20025;-75
2024/01/26 04:00:17;;;;;;;12.32;8.75;;;11.90;99.90;;;;;;5032443;28;20493;-75
2024/01/26 04:02:42;;;;;;;11.65;8.63;;;11.80;99.90;;;;;;5030617;28;20477;-76
2024/01/26 04:05:09;;;;;;;17.02;8.50;;;11.70;99.90;;;;;;5024524;28;20075;-76
2024/01/26 04:07:35;;;;;;;11.00;8.45;;;11.70;99.90;;;;;;5025066;28;20526;-75
2024/01/26 04:10:01;;;;;;;13.35;8.98;;;11.70;99.90;;;;;;5026658;28;20059;-75
2024/01/26 04:12:26;;;;;;;15.68;8.40;;;11.70;99.90;;;;;;5029953;28;20029;-75
2024/01/26 04:14:52;;;;;;;14.60;8.77;;;11.70;99.90;;;;;;5023694;28;20028;-76
2024/01/26 04:17:18;;;;;;;13.23;8.27;;;11.70;99.90;;;;;;5024667;28;20029;-75
2024/01/26 04:19:44;;;;;;;16.85;10.05;;;11.70;99.90;;;;;;5032109;28;20021;-75
2024/01/26 04:22:09;;;;;;;12.88;8.60;;;11.60;99.90;;;;;;5023183;28;20040;-75
2024/01/26 04:24:36;;;;;;;12.75;9.57;;;11.60;99.90;;;;;;5028478;28;20486;-75
2024/01/26 04:27:01;;;;;;;17.48;9.30;;;11.70;99.90;;;;;;5022956;28;20039;-75
2024/01/26 04:29:27;;;;;;;12.07;9.05;;;11.70;99.90;;;;;;5026631;28;20029;-75
2024/01/26 04:31:53;;;;;;;13.10;8.88;;;11.70;99.90;;;;;;5030146;28;20029;-75
2024/01/26 04:34:19;;;;;;;14.18;9.20;;;11.70;99.90;;;;;;5023374;28;20109;-75
2024/01/26 04:36:46;;;;;;;11.95;9.38;;;11.70;99.90;;;;;;5026664;28;20036;-76
2024/01/26 04:39:13;;;;;;;14.70;9.32;;;11.70;99.90;;;;;;5033243;28;20021;-75
2024/01/26 04:41:40;;;;;;;18.25;10.57;;;11.60;99.90;;;;;;5018697;28;20030;-75
2024/01/26 04:44:06;;;;;;;13.38;9.32;;;11.60;99.90;;;;;;5026586;28;20043;-75
2024/01/26 04:46:32;;;;;;;17.42;10.38;;;11.60;99.90;;;;;;5029284;28;20025;-75
2024/01/26 04:48:58;;;;;;;16.20;10.25;;;11.70;99.90;;;;;;5032556;28;20029;-75
2024/01/26 04:51:23;;;;;;;12.02;8.75;;;11.60;99.90;;;;;;5023862;28;20072;-75
2024/01/26 04:53:49;;;;;;;13.40;9.95;;;11.60;99.90;;;;;;5024409;28;20529;-75
2024/01/26 04:56:15;;;;;;;15.02;9.73;;;11.60;99.90;;;;;;5023382;28;20034;-76
2024/01/26 04:58:40;;;;;;;13.25;10.75;;;11.60;99.90;;;;;;5031107;28;20433;-75
2024/01/26 05:01:07;;;;;;;14.90;9.85;;;11.50;99.90;;;;;;5027085;28;20021;-75
2024/01/26 05:03:32;;;;;;;11.80;8.88;;;11.60;99.90;;;;;;5025154;28;20037;-75
2024/01/26 05:05:58;;;;;;;14.25;9.32;;;11.60;99.90;;;;;;5018982;28;20351;-75
2024/01/26 05:08:24;;;;;;;10.55;9.02;;;11.60;99.90;;;;;;5028826;28;20048;-76
2024/01/26 05:10:49;;;;;;;15.18;10.57;;;11.60;99.90;;;;;;5028628;28;20028;-75
2024/01/26 05:13:15;;;;;;;12.80;9.55;;;11.60;99.90;;;;;;5026291;28;20551;-75
2024/01/26 05:15:41;;;;;;;12.10;9.40;;;11.60;99.90;;;;;;5025688;28;20029;-75
2024/01/26 05:18:08;;;;;;;16.52;10.65;;;11.60;99.90;;;;;;5031162;28;20498;-75
2024/01/26 05:20:34;;;;;;;14.18;10.07;;;11.60;99.90;;;;;;5024005;28;20021;-75
2024/01/26 05:22:59;;;;;;;13.38;10.05;;;11.50;99.90;;;;;;5023986;28;20096;-76
2024/01/26 05:25:25;;;;;;;13.50;10.38;;;11.60;99.90;;;;;;5029067;28;20420;-76
2024/01/26 05:27:51;;;;;;;15.63;10.27;;;11.60;99.90;;;;;;5023666;28;20022;-75
2024/01/26 05:30:17;;;;;;;18.60;11.50;;;11.60;99.90;;;;;;5021399;28;20037;-76
2024/01/26 05:32:43;;;;;;;14.15;10.73;;;11.60;99.90;;;;;;5023409;28;20037;-75
2024/01/26 05:35:09;;;;;;;15.90;11.13;;;11.60;99.90;;;;;;5021320;28;20489;-74
2024/01/26 05:37:36;;;;;;;17.70;12.23;;;11.60;99.90;;;;;;5031361;28;20029;-75
2024/01/26 05:40:08;;;;;;;17.65;12.27;;;11.60;99.90;;;;;;5025895;28;20122;-76
2024/01/26 05:42:34;;;;;;;17.05;12.35;;;11.70;99.90;;;;;;5026436;28;20034;-76
2024/01/26 05:45:01;;;;;;;15.75;11.68;;;11.60;99.90;;;;;;5021184;28;20529;-77
2024/01/26 05:47:27;;;;;;;20.92;12.32;;;11.60;99.90;;;;;;5025671;28;20052;-76
2024/01/26 05:49:53;;;;;;;18.20;12.30;;;11.70;99.90;;;;;;5031531;28;20475;-76
2024/01/26 05:52:18;;;;;;;22.02;13.65;;;11.60;99.90;;;;;;5031132;28;20438;-76
2024/01/26 05:54:44;;;;;;;19.20;13.68;;;11.70;99.90;;;;;;5022749;28;20022;-76
2024/01/26 05:57:10;;;;;;;18.25;13.20;;;11.70;99.90;;;;;;5026107;28;20030;-76
2024/01/26 05:59:38;;;;;;;22.13;12.82;;;11.60;99.90;;;;;;5031566;28;20033;-76
2024/01/26 06:02:05;;;;;;;20.08;13.35;;;11.60;99.90;;;;;;5028117;28;20048;-76
2024/01/26 06:04:34;;;;;;;19.85;12.60;;;11.60;99.90;;;;;;5021993;28;20378;-76
2024/01/26 06:07:00;;;;;;;18.10;12.35;;;11.70;99.90;;;;;;5025069;28;20034;-76
2024/01/26 06:09:25;;;;;;;18.35;12.60;;;11.60;99.90;;;;;;5026702;28;20040;-76
2024/01/26 06:11:51;;;;;;;19.60;13.25;;;11.60;99.90;;;;;;5021006;28;20033;-75
2024/01/26 06:14:17;;;;;;;21.63;14.68;;;11.70;99.90;;;;;;5022640;28;20150;-77
2024/01/26 06:16:46;;;;;;;26.75;15.50;;;11.70;99.90;;;;;;5025303;28;20067;-77
2024/01/26 06:19:12;;;;;;;23.30;14.95;;;11.70;99.90;;;;;;5027364;28;20065;-77
2024/01/26 06:21:38;;;;;;;26.25;16.02;;;11.70;99.90;;;;;;5021824;28;20475;-77
2024/01/26 06:24:03;;;;;;;23.95;14.45;;;11.70;99.90;;;;;;5026713;28;20022;-77
2024/01/26 06:26:29;;;;;;;33.33;17.67;;;11.70;99.90;;;;;;5024975;28;20033;-77
2024/01/26 06:28:55;;;;;;;27.52;16.60;;;11.70;99.90;;;;;;5022510;28;20398;-77
2024/01/26 06:31:25;;;;;;;30.88;18.45;;;11.70;99.90;;;;;;5032099;28;20076;-77
2024/01/26 06:33:51;;;;;;;30.70;18.27;;;11.70;99.90;;;;;;5020649;28;20029;-77
2024/01/26 06:36:17;;;;;;;29.00;15.95;;;11.60;99.90;;;;;;5025186;28;20398;-76
2024/01/26 06:38:42;;;;;;;26.65;16.98;;;11.60;99.90;;;;;;5029711;28;20022;-77
2024/01/26 06:41:08;;;;;;;26.05;16.27;;;11.70;99.90;;;;;;5029866;28;20041;-77
2024/01/26 06:43:34;;;;;;;28.05;17.83;;;11.70;99.90;;;;;;5025030;28;20033;-76
2024/01/26 06:46:00;;;;;;;31.05;17.35;;;11.70;99.90;;;;;;5026532;28;20022;-76
2024/01/26 06:48:26;;;;;;;28.27;17.90;;;11.70;99.90;;;;;;5032786;28;20029;-77
2024/01/26 06:50:52;;;;;;;28.70;18.00;;;11.70;99.90;;;;;;5025415;28;20045;-76
2024/01/26 06:53:18;;;;;;;33.45;18.75;;;11.70;99.90;;;;;;5029447;28;20026;-76
2024/01/26 06:55:45;;;;;;;31.38;17.38;;;11.70;99.90;;;;;;5028132;28;20056;-76
2024/01/26 06:58:10;;;;;;;32.22;17.80;;;11.70;99.90;;;;;;5027544;28;20034;-77
2024/01/26 07:00:36;;;;;;;29.45;17.85;;;11.70;99.90;;;;;;5024929;28;20044;-76
2024/01/26 07:03:02;;;;;;;33.38;17.70;;;11.60;99.90;;;;;;5023604;28;20044;-77
2024/01/26 07:05:28;;;;;;;31.13;17.55;;;11.70;99.90;;;;;;5026312;28;20029;-78
2024/01/26 07:07:56;;;;;;;28.88;17.25;;;11.70;99.90;;;;;;5032023;28;20068;-79
2024/01/26 07:10:25;;;;;;;32.42;16.55;;;11.70;99.90;;;;;;5014074;28;20153;-78
2024/01/26 07:12:51;;;;;;;32.53;17.13;;;11.70;99.90;;;;;;5014436;28;20048;-78
2024/01/26 07:15:17;;;;;;;31.00;17.45;;;11.70;99.90;;;;;;5014822;28;20113;-78
2024/01/26 07:17:42;;;;;;;31.20;18.13;;;11.80;99.90;;;;;;5013651;28;20026;-77
2024/01/26 07:20:09;;;;;;;27.38;17.33;;;11.70;99.90;;;;;;5022103;28;20076;-78
2024/01/26 07:22:34;;;;;;;29.55;16.65;;;11.80;99.90;;;;;;5034292;28;20099;-78
2024/01/26 07:25:00;;;;;;;28.33;16.63;;;11.80;99.90;;;;;;5025964;28;20486;-77
2024/01/26 07:27:27;;;;;;;30.90;16.88;;;11.90;99.90;;;;;;5014153;28;20060;-78
2024/01/26 07:29:53;;;;;;;26.02;16.05;;;11.90;99.90;;;;;;5019857;28;20030;-77
2024/01/26 07:32:19;;;;;;;29.90;17.98;;;11.90;99.90;;;;;;5033271;28;20030;-78
2024/01/26 07:34:44;;;;;;;31.90;17.90;;;11.90;99.90;;;;;;5034128;28;20063;-77
2024/01/26 07:37:10;;;;;;;30.40;16.50;;;11.90;99.90;;;;;;5033240;28;20026;-77
2024/01/26 07:39:36;;;;;;;27.30;16.27;;;11.90;99.90;;;;;;5033692;28;20036;-76
2024/01/26 07:42:02;;;;;;;27.45;15.35;;;11.90;99.90;;;;;;5032651;28;20025;-77
2024/01/26 07:44:27;;;;;;;20.90;13.77;;;12.00;99.90;;;;;;5026854;28;20034;-76
2024/01/26 07:46:53;;;;;;;29.67;16.02;;;12.00;99.90;;;;;;5027116;28;20479;-77
2024/01/26 07:49:19;;;;;;;28.20;15.43;;;12.00;99.90;;;;;;5033245;28;20609;-78
2024/01/26 07:51:45;;;;;;;23.27;14.48;;;11.90;99.90;;;;;;5025638;28;20040;-77
2024/01/26 07:54:10;;;;;;;28.23;14.93;;;11.90;99.90;;;;;;5013261;28;20081;-77
2024/01/26 07:56:36;;;;;;;28.02;16.48;;;11.90;99.90;;;;;;5013556;28;20166;-78
2024/01/26 07:59:02;;;;;;;25.25;15.43;;;11.90;99.90;;;;;;5023266;28;20041;-78
2024/01/26 08:01:27;;;;;;;22.48;13.85;;;11.90;99.90;;;;;;5032880;28;20033;-78
2024/01/26 08:03:53;;;;;;;22.92;14.00;;;11.90;99.90;;;;;;5033408;28;20497;-78
2024/01/26 08:06:19;;;;;;;21.83;14.20;;;12.00;99.90;;;;;;5033593;28;20421;-78
2024/01/26 08:08:45;;;;;;;24.83;13.63;;;12.10;99.90;;;;;;5029749;28;20104;-78
2024/01/26 08:11:10;;;;;;;21.23;13.40;;;12.10;99.90;;;;;;5033049;28;20029;-78
2024/01/26 08:13:36;;;;;;;21.20;14.68;;;12.10;99.90;;;;;;5033294;28;20065;-78
2024/01/26 08:16:03;;;;;;;23.27;13.80;;;12.10;99.90;;;;;;5031432;28;20029;-78
2024/01/26 08:18:28;;;;;;;22.42;15.13;;;12.20;99.90;;;;;;5033399;28;20068;-78
2024/01/26 08:20:54;;;;;;;24.15;15.07;;;12.20;99.90;;;;;;5024230;28;20431;-78
2024/01/26 08:23:20;;;;;;;24.65;14.73;;;12.20;99.90;;;;;;5029920;28;20376;-78
2024/01/26 08:25:46;;;;;;;22.73;14.48;;;12.10;99.90;;;;;;5018996;28;20096;-78
2024/01/26 08:28:12;;;;;;;24.88;16.25;;;12.20;99.90;;;;;;5015802;28;20071;-75
2024/01/26 08:30:38;;;;;;;23.13;15.70;;;12.10;99.90;;;;;;5032893;28;20017;-76
2024/01/26 08:33:04;;;;;;;23.60;15.38;;;12.30;99.90;;;;;;5028319;28;20044;-75
2024/01/26 08:35:29;;;;;;;24.60;13.82;;;12.20;99.90;;;;;;5013169;28;20026;-76
2024/01/26 08:37:55;;;;;;;22.40;14.38;;;12.20;99.90;;;;;;5012851;28;20502;-76
2024/01/26 08:40:21;;;;;;;20.67;14.35;;;12.20;99.90;;;;;;5010927;28;20014;-75
2024/01/26 08:42:47;;;;;;;23.23;13.43;;;12.20;99.90;;;;;;5024919;28;20069;-75
2024/01/26 08:45:13;;;;;;;18.60;13.00;;;12.30;99.90;;;;;;5014732;28;20014;-75
2024/01/26 08:47:38;;;;;;;21.80;13.50;;;12.30;99.90;;;;;;5012725;28;20113;-75
2024/01/26 08:50:05;;;;;;;21.55;12.02;;;12.30;99.90;;;;;;5012542;28;20018;-75
2024/01/26 08:52:31;;;;;;;16.65;11.48;;;12.30;99.90;;;;;;5012940;28;20014;-75
2024/01/26 08:54:58;;;;;;;16.77;10.25;;;12.30;99.90;;;;;;5023839;28;20512;-75
2024/01/26 08:57:24;;;;;;;16.75;10.73;;;12.40;99.90;;;;;;5010976;28;20054;-75
2024/01/26 08:59:49;;;;;;;17.92;11.57;;;12.40;99.90;;;;;;5010814;28;20482;-76
2024/01/26 09:02:19;;;;;;;14.85;9.95;;;12.40;99.90;;;;;;5012726;28;20147;-76
2024/01/26 09:04:45;;;;;;;16.52;8.48;;;12.40;99.90;;;;;;5021957;28;20092;-75
2024/01/26 09:07:10;;;;;;;13.63;8.73;;;12.40;99.90;;;;;;5015579;28;20113;-76
2024/01/26 09:09:37;;;;;;;13.57;8.57;;;12.50;99.90;;;;;;5011544;28;20069;-75
2024/01/26 09:12:02;;;;;;;16.48;9.63;;;12.50;99.90;;;;;;5012553;28;20077;-75
2024/01/26 09:14:28;;;;;;;13.43;8.25;;;12.50;99.90;;;;;;5010303;28;20534;-75
2024/01/26 09:16:54;;;;;;;13.00;8.65;;;12.40;99.90;;;;;;5033049;28;20036;-75
2024/01/26 09:19:20;;;;;;;15.00;9.85;;;12.40;99.90;;;;;;5027272;28;20630;-75
2024/01/26 09:21:46;;;;;;;12.15;8.55;;;12.40;99.90;;;;;;5025628;28;20405;-74
2024/01/26 09:24:12;;;;;;;14.48;8.15;;;12.50;99.90;;;;;;5027443;28;20101;-76
2024/01/26 09:26:39;;;;;;;13.82;8.00;;;12.50;99.90;;;;;;5022088;28;20025;-77
2024/01/26 09:29:07;;;;;;;11.85;7.07;;;12.40;99.90;;;;;;5024250;28;20053;-76
2024/01/26 09:31:33;;;;;;;13.32;7.95;;;12.50;99.90;;;;;;5031225;28;20152;-76
2024/01/26 09:33:59;;;;;;;13.05;7.65;;;12.50;99.90;;;;;;5048652;28;20054;-77
2024/01/26 09:36:25;;;;;;;10.95;7.47;;;12.50;99.90;;;;;;5051174;28;20028;-77
2024/01/26 09:38:51;;;;;;;14.90;7.20;;;12.50;99.90;;;;;;5034968;28;20034;-78
2024/01/26 09:41:17;;;;;;;15.98;7.60;;;12.60;99.90;;;;;;5032223;28;20033;-79
2024/01/26 09:43:43;;;;;;;16.55;8.27;;;12.60;99.90;;;;;;5020869;28;20101;-79
2024/01/26 09:46:09;;;;;;;13.88;6.82;;;12.60;99.90;;;;;;5011319;28;20776;-78
2024/01/26 09:48:36;;;;;;;11.27;5.18;;;12.50;99.90;;;;;;5025925;28;20036;-79
2024/01/26 09:51:01;;;;;;;7.22;4.55;;;12.60;99.90;;;;;;5032214;28;20026;-78
2024/01/26 09:53:29;;;;;;;9.00;4.10;;;12.50;99.90;;;;;;5011799;28;20049;-78
2024/01/26 09:55:55;;;;;;;10.35;3.65;;;12.50;99.90;;;;;;5021084;28;20374;-78
2024/01/26 09:58:21;;;;;;;7.95;3.70;;;12.50;99.90;;;;;;5021961;28;20533;-79
2024/01/26 10:00:48;;;;;;;11.63;3.85;;;12.40;99.90;;;;;;5020994;28;20406;-78
2024/01/26 10:03:14;;;;;;;15.93;4.63;;;12.30;99.90;;;;;;5019782;28;20033;-80
2024/01/26 10:05:39;;;;;;;9.73;3.10;;;12.30;99.90;;;;;;5024193;28;20025;-78
2024/01/26 10:08:08;;;;;;;12.20;2.88;;;12.20;99.90;;;;;;5019661;28;20022;-80
2024/01/26 10:10:34;;;;;;;13.45;2.95;;;12.10;99.90;;;;;;5001860;28;20482;-77
2024/01/26 10:13:00;;;;;;;13.85;2.47;;;12.10;99.90;;;;;;5025106;28;20433;-78
2024/01/26 10:15:26;;;;;;;6.75;2.13;;;12.10;99.90;;;;;;5031476;28;20026;-78
2024/01/26 10:17:53;;;;;;;23.15;3.22;;;12.10;99.90;;;;;;5032526;28;20025;-78
2024/01/26 10:20:20;;;;;;;11.18;2.10;;;12.10;99.90;;;;;;5029124;28;20020;-78
2024/01/26 10:22:46;;;;;;;12.60;2.70;;;12.00;99.90;;;;;;5031370;28;20497;-79
2024/01/26 10:25:13;;;;;;;10.35;2.10;;;12.10;99.90;;;;;;5031276;28;20106;-78
2024/01/26 10:27:39;;;;;;;11.48;2.03;;;12.10;99.90;;;;;;5031539;28;20029;-77
2024/01/26 10:30:06;;;;;;;15.48;2.30;;;12.20;99.90;;;;;;5030547;28;20080;-78
2024/01/26 10:32:33;;;;;;;10.48;2.28;;;12.10;99.90;;;;;;5033814;28;20517;-78
2024/01/26 10:35:03;;;;;;;10.85;2.58;;;12.20;99.90;;;;;;5030895;28;20034;-78
2024/01/26 10:37:34;;;;;;;7.82;1.98;;;12.10;99.90;;;;;;5030480;28;20022;-79
2024/01/26 10:40:02;;;;;;;11.63;2.17;;;12.10;99.90;;;;;;5030635;28;20029;-78
2024/01/26 10:42:32;;;;;;;9.70;2.15;;;12.10;99.90;;;;;;5032709;28;20034;-76
2024/01/26 10:45:00;;;;;;;18.67;2.85;;;12.10;99.90;;;;;;5034430;28;20041;-75
2024/01/26 10:47:27;;;;;;;11.88;2.67;;;12.10;99.90;;;;;;5038076;28;20025;-76
2024/01/26 10:49:57;;;;;;;13.75;2.33;;;12.20;99.90;;;;;;5035239;28;20028;-76
2024/01/26 10:52:23;;;;;;;14.65;3.33;;;12.20;99.90;;;;;;5032661;28;20508;-74
2024/01/26 10:54:51;;;;;;;12.15;2.75;;;12.00;99.90;;;;;;5034424;28;20022;-76
2024/01/26 10:57:19;;;;;;;8.82;2.33;;;11.90;99.90;;;;;;5033352;28;20064;-75
2024/01/26 10:59:46;;;;;;;8.48;2.00;;;11.90;99.90;;;;;;5024819;28;20026;-74
2024/01/26 11:02:19;;;;;;;9.80;2.30;;;11.90;99.90;;;;;;5031975;28;20518;-75
2024/01/26 11:04:45;;;;;;;15.98;2.20;;;11.90;99.90;;;;;;5035231;28;20020;-76
2024/01/26 11:07:11;;;;;;;11.23;2.35;;;12.00;99.90;;;;;;5032715;28;20029;-76
2024/01/26 11:09:41;;;;;;;8.88;2.20;;;12.10;99.90;;;;;;5032023;28;20057;-77
2024/01/26 11:12:26;;;;;;;10.63;1.70;;;12.20;99.90;;;;;;5030126;28;20112;-75
2024/01/26 11:15:15;;;;;;;7.50;1.73;;;12.30;99.90;;;;;;5030710;28;20033;-75
2024/01/26 11:17:51;;;;;;;8.85;1.52;;;12.20;99.90;;;;;;5031744;28;20099;-75
2024/01/26 11:20:25;;;;;;;9.45;1.77;;;12.20;99.90;;;;;;5031719;28;20040;-75
2024/01/26 11:23:14;;;;;;;7.30;1.45;;;12.20;99.90;;;;;;5037907;28;20080;-75
2024/01/26 11:25:44;;;;;;;9.48;1.60;;;12.20;99.90;;;;;;5032498;28;20013;-75
2024/01/26 11:28:14;;;;;;;6.63;1.73;;;12.00;99.90;;;;;;5032626;28;20032;-74
2024/01/26 11:30:40;;;;;;;9.55;1.85;;;12.00;99.90;;;;;;5029514;28;20061;-76
2024/01/26 11:33:21;;;;;;;5.43;1.52;;;11.80;99.90;;;;;;5028197;28;20035;-74
2024/01/26 11:35:47;;;;;;;13.75;2.10;;;11.90;99.90;;;;;;5032254;28;21541;-75
2024/01/26 11:38:13;;;;;;;7.32;2.00;;;11.90;99.90;;;;;;5030012;28;20433;-75
2024/01/26 11:40:40;;;;;;;7.97;1.58;;;11.90;99.90;;;;;;5030265;28;20025;-75
2024/01/26 11:43:07;;;;;;;7.53;1.75;;;12.00;99.90;;;;;;5031352;28;20048;-73
2024/01/26 11:45:42;;;;;;;13.25;2.85;;;11.90;99.90;;;;;;5029211;28;20037;-75
2024/01/26 11:48:08;;;;;;;6.45;1.25;;;12.00;99.90;;;;;;5031556;28;20029;-75
2024/01/26 11:50:35;;;;;;;6.75;1.98;;;11.90;99.90;;;;;;5032486;28;20124;-75
2024/01/26 11:53:03;;;;;;;6.57;1.30;;;11.80;99.90;;;;;;5031461;28;20036;-75
2024/01/26 11:55:29;;;;;;;7.85;1.42;;;11.80;99.90;;;;;;5030509;28;20037;-75
2024/01/26 11:57:55;;;;;;;7.22;1.10;;;11.60;99.90;;;;;;5032675;28;20371;-76
2024/01/26 12:00:21;;;;;;;7.15;1.33;;;11.50;99.90;;;;;;5031244;28;20120;-75
2024/01/26 12:02:47;;;;;;;7.60;1.52;;;11.50;99.90;;;;;;5035351;28;20117;-76
2024/01/26 12:05:15;;;;;;;6.10;1.30;;;11.40;99.90;;;;;;5032336;28;20021;-75
2024/01/26 12:07:41;;;;;;;11.70;1.73;;;11.40;99.90;;;;;;5030277;28;20014;-76
2024/01/26 12:10:09;;;;;;;6.50;1.30;;;11.50;99.90;;;;;;5030461;28;20531;-76
2024/01/26 12:12:35;;;;;;;7.43;1.75;;;11.50;99.90;;;;;;5028639;28;20474;-76
2024/01/26 12:15:03;;;;;;;7.07;1.42;;;11.60;99.90;;;;;;5030550;28;20030;-75
2024/01/26 12:17:28;;;;;;;6.35;1.63;;;11.40;99.90;;;;;;5030755;28;20053;-76
2024/01/26 12:19:55;;;;;;;5.93;1.23;;;11.40;99.90;;;;;;5031453;28;20049;-75
2024/01/26 12:22:20;;;;;;;4.18;1.48;;;11.60;99.90;;;;;;5032366;28;20040;-79
2024/01/26 12:24:46;;;;;;;8.00;1.27;;;11.60;99.90;;;;;;5029527;28;20394;-78
2024/01/26 12:27:12;;;;;;;11.50;1.75;;;11.60;99.90;;;;;;5028602;28;20029;-77
2024/01/26 12:29:38;;;;;;;12.50;1.50;;;11.50;99.90;;;;;;5029212;28;20040;-77